sensor_id;sensor_type;location;lat;lon;timestamp;P1;durP1;ratioP1;P2;durP2;ratioP2
13493;SDS011;6819;50.886;4.332;2023-05-10T00:00:33;9.45;;;5.50;;
13493;SDS011;6819;50.886;4.332;2023-05-10T00:02:59;11.88;;;6.35;;
13493;SDS011;6819;50.886;4.332;2023-05-10T00:05:25;13.60;;;5.95;;
13493;SDS011;6819;50.886;4.332;2023-05-10T00:07:51;15.43;;;7.00;;
13493;SDS011;6819;50.886;4.332;2023-05-10T00:10:17;13.98;;;6.35;;
13493;SDS011;6819;50.886;4.332;2023-05-10T00:12:43;18.73;;;6.40;;
13493;SDS011;6819;50.886;4.332;2023-05-10T00:15:09;14.60;;;6.35;;
13493;SDS011;6819;50.886;4.332;2023-05-10T00:17:35;16.92;;;5.68;;
13493;SDS011;6819;50.886;4.332;2023-05-10T00:20:01;12.25;;;6.35;;
13493;SDS011;6819;50.886;4.332;2023-05-10T00:22:29;15.30;;;5.97;;
13493;SDS011;6819;50.886;4.332;2023-05-10T00:24:56;16.88;;;7.07;;
13493;SDS011;6819;50.886;4.332;2023-05-10T00:27:22;14.48;;;7.20;;
13493;SDS011;6819;50.886;4.332;2023-05-10T00:29:48;14.55;;;7.47;;
13493;SDS011;6819;50.886;4.332;2023-05-10T00:32:14;12.30;;;6.47;;
13493;SDS011;6819;50.886;4.332;2023-05-10T00:34:41;13.50;;;6.80;;
13493;SDS011;6819;50.886;4.332;2023-05-10T00:37:07;14.75;;;7.70;;
13493;SDS011;6819;50.886;4.332;2023-05-10T00:39:33;15.35;;;7.10;;
13493;SDS011;6819;50.886;4.332;2023-05-10T00:41:59;18.48;;;7.53;;
13493;SDS011;6819;50.886;4.332;2023-05-10T00:44:25;18.45;;;7.35;;
13493;SDS011;6819;50.886;4.332;2023-05-10T00:46:51;16.65;;;7.88;;
13493;SDS011;6819;50.886;4.332;2023-05-10T00:49:18;13.43;;;7.55;;
13493;SDS011;6819;50.886;4.332;2023-05-10T00:51:44;13.25;;;6.97;;
13493;SDS011;6819;50.886;4.332;2023-05-10T00:54:11;11.70;;;6.95;;
13493;SDS011;6819;50.886;4.332;2023-05-10T00:56:37;17.70;;;7.30;;
13493;SDS011;6819;50.886;4.332;2023-05-10T00:59:03;16.77;;;6.75;;
13493;SDS011;6819;50.886;4.332;2023-05-10T01:01:29;13.07;;;7.10;;
13493;SDS011;6819;50.886;4.332;2023-05-10T01:03:56;20.15;;;7.95;;
13493;SDS011;6819;50.886;4.332;2023-05-10T01:06:22;13.13;;;7.72;;
13493;SDS011;6819;50.886;4.332;2023-05-10T01:08:48;16.27;;;7.80;;
13493;SDS011;6819;50.886;4.332;2023-05-10T01:11:15;14.90;;;7.57;;
13493;SDS011;6819;50.886;4.332;2023-05-10T01:13:42;15.48;;;7.45;;
13493;SDS011;6819;50.886;4.332;2023-05-10T01:16:09;13.68;;;6.60;;
13493;SDS011;6819;50.886;4.332;2023-05-10T01:18:39;14.00;;;6.85;;
13493;SDS011;6819;50.886;4.332;2023-05-10T01:33:50;17.02;;;8.73;;
13493;SDS011;6819;50.886;4.332;2023-05-10T01:36:23;14.88;;;7.75;;
13493;SDS011;6819;50.886;4.332;2023-05-10T01:41:45;18.98;;;8.38;;
13493;SDS011;6819;50.886;4.332;2023-05-10T01:46:42;15.90;;;8.13;;
13493;SDS011;6819;50.886;4.332;2023-05-10T01:49:10;18.00;;;8.68;;
13493;SDS011;6819;50.886;4.332;2023-05-10T01:51:47;14.57;;;8.13;;
13493;SDS011;6819;50.886;4.332;2023-05-10T01:54:16;17.20;;;9.35;;
13493;SDS011;6819;50.886;4.332;2023-05-10T01:56:43;16.00;;;8.68;;
13493;SDS011;6819;50.886;4.332;2023-05-10T01:59:11;18.23;;;8.93;;
13493;SDS011;6819;50.886;4.332;2023-05-10T02:01:39;16.83;;;9.23;;
13493;SDS011;6819;50.886;4.332;2023-05-10T02:04:06;17.35;;;9.20;;
13493;SDS011;6819;50.886;4.332;2023-05-10T02:06:32;22.42;;;9.45;;
13493;SDS011;6819;50.886;4.332;2023-05-10T02:08:59;16.40;;;8.82;;
13493;SDS011;6819;50.886;4.332;2023-05-10T02:11:26;18.50;;;8.82;;
13493;SDS011;6819;50.886;4.332;2023-05-10T02:13:53;18.85;;;8.32;;
13493;SDS011;6819;50.886;4.332;2023-05-10T02:16:20;18.65;;;8.98;;
13493;SDS011;6819;50.886;4.332;2023-05-10T02:18:48;21.65;;;8.60;;
13493;SDS011;6819;50.886;4.332;2023-05-10T02:21:16;21.67;;;9.27;;
13493;SDS011;6819;50.886;4.332;2023-05-10T02:23:43;20.08;;;8.88;;
13493;SDS011;6819;50.886;4.332;2023-05-10T02:26:10;18.40;;;9.02;;
13493;SDS011;6819;50.886;4.332;2023-05-10T02:28:37;18.63;;;8.98;;
13493;SDS011;6819;50.886;4.332;2023-05-10T02:31:03;20.80;;;9.38;;
13493;SDS011;6819;50.886;4.332;2023-05-10T02:33:31;21.60;;;9.68;;
13493;SDS011;6819;50.886;4.332;2023-05-10T02:35:57;18.63;;;9.40;;
13493;SDS011;6819;50.886;4.332;2023-05-10T02:38:23;21.23;;;9.07;;
13493;SDS011;6819;50.886;4.332;2023-05-10T02:40:50;19.75;;;9.98;;
13493;SDS011;6819;50.886;4.332;2023-05-10T02:43:16;16.48;;;9.00;;
13493;SDS011;6819;50.886;4.332;2023-05-10T02:45:43;15.30;;;9.18;;
13493;SDS011;6819;50.886;4.332;2023-05-10T02:48:09;27.42;;;9.02;;
13493;SDS011;6819;50.886;4.332;2023-05-10T02:50:35;17.88;;;9.20;;
13493;SDS011;6819;50.886;4.332;2023-05-10T02:53:04;22.20;;;8.70;;
13493;SDS011;6819;50.886;4.332;2023-05-10T02:55:32;16.88;;;8.93;;
13493;SDS011;6819;50.886;4.332;2023-05-10T02:58:01;19.65;;;9.55;;
13493;SDS011;6819;50.886;4.332;2023-05-10T03:00:27;17.65;;;8.20;;
13493;SDS011;6819;50.886;4.332;2023-05-10T03:02:53;21.05;;;9.68;;
13493;SDS011;6819;50.886;4.332;2023-05-10T03:05:20;15.02;;;8.77;;
13493;SDS011;6819;50.886;4.332;2023-05-10T03:07:46;21.85;;;9.02;;
13493;SDS011;6819;50.886;4.332;2023-05-10T03:10:12;18.85;;;9.00;;
13493;SDS011;6819;50.886;4.332;2023-05-10T03:20:25;18.52;;;9.40;;
13493;SDS011;6819;50.886;4.332;2023-05-10T03:23:40;26.58;;;10.23;;
13493;SDS011;6819;50.886;4.332;2023-05-10T03:25:38;23.25;;;10.13;;
13493;SDS011;6819;50.886;4.332;2023-05-10T03:28:06;23.48;;;10.60;;
13493;SDS011;6819;50.886;4.332;2023-05-10T03:30:32;19.67;;;10.35;;
13493;SDS011;6819;50.886;4.332;2023-05-10T03:33:03;21.45;;;10.57;;
13493;SDS011;6819;50.886;4.332;2023-05-10T03:35:30;20.02;;;10.65;;
13493;SDS011;6819;50.886;4.332;2023-05-10T03:37:56;20.35;;;10.63;;
13493;SDS011;6819;50.886;4.332;2023-05-10T03:40:22;21.30;;;10.80;;
13493;SDS011;6819;50.886;4.332;2023-05-10T03:42:48;23.50;;;10.20;;
13493;SDS011;6819;50.886;4.332;2023-05-10T03:45:14;22.10;;;11.35;;
13493;SDS011;6819;50.886;4.332;2023-05-10T03:47:40;21.55;;;10.68;;
13493;SDS011;6819;50.886;4.332;2023-05-10T03:50:07;24.23;;;11.00;;
13493;SDS011;6819;50.886;4.332;2023-05-10T03:52:33;22.88;;;11.10;;
13493;SDS011;6819;50.886;4.332;2023-05-10T03:54:59;22.75;;;11.98;;
13493;SDS011;6819;50.886;4.332;2023-05-10T03:57:25;26.23;;;12.18;;
13493;SDS011;6819;50.886;4.332;2023-05-10T03:59:51;24.33;;;11.55;;
13493;SDS011;6819;50.886;4.332;2023-05-10T04:02:17;24.88;;;12.98;;
13493;SDS011;6819;50.886;4.332;2023-05-10T04:04:43;24.10;;;11.98;;
13493;SDS011;6819;50.886;4.332;2023-05-10T04:07:09;24.13;;;12.38;;
13493;SDS011;6819;50.886;4.332;2023-05-10T04:09:35;28.15;;;12.80;;
13493;SDS011;6819;50.886;4.332;2023-05-10T04:12:01;27.20;;;11.98;;
13493;SDS011;6819;50.886;4.332;2023-05-10T04:14:27;29.05;;;13.52;;
13493;SDS011;6819;50.886;4.332;2023-05-10T04:16:53;25.88;;;12.75;;
13493;SDS011;6819;50.886;4.332;2023-05-10T04:19:20;28.05;;;12.35;;
13493;SDS011;6819;50.886;4.332;2023-05-10T04:21:46;23.40;;;12.55;;
13493;SDS011;6819;50.886;4.332;2023-05-10T04:24:12;26.70;;;13.68;;
13493;SDS011;6819;50.886;4.332;2023-05-10T04:26:38;31.02;;;13.70;;
13493;SDS011;6819;50.886;4.332;2023-05-10T04:29:04;25.75;;;13.32;;
13493;SDS011;6819;50.886;4.332;2023-05-10T04:31:30;29.92;;;13.60;;
13493;SDS011;6819;50.886;4.332;2023-05-10T04:33:56;33.05;;;14.13;;
13493;SDS011;6819;50.886;4.332;2023-05-10T04:36:22;29.52;;;14.13;;
13493;SDS011;6819;50.886;4.332;2023-05-10T04:38:48;30.90;;;13.32;;
13493;SDS011;6819;50.886;4.332;2023-05-10T04:41:14;30.85;;;13.48;;
13493;SDS011;6819;50.886;4.332;2023-05-10T04:43:40;29.77;;;13.05;;
13493;SDS011;6819;50.886;4.332;2023-05-10T04:46:06;30.73;;;12.93;;
13493;SDS011;6819;50.886;4.332;2023-05-10T04:48:32;27.08;;;13.82;;
13493;SDS011;6819;50.886;4.332;2023-05-10T04:50:59;27.30;;;15.50;;
13493;SDS011;6819;50.886;4.332;2023-05-10T04:53:25;27.75;;;13.40;;
13493;SDS011;6819;50.886;4.332;2023-05-10T04:55:51;25.00;;;13.00;;
13493;SDS011;6819;50.886;4.332;2023-05-10T04:58:17;29.65;;;13.32;;
13493;SDS011;6819;50.886;4.332;2023-05-10T05:00:43;27.92;;;14.25;;
13493;SDS011;6819;50.886;4.332;2023-05-10T05:03:09;28.52;;;14.68;;
13493;SDS011;6819;50.886;4.332;2023-05-10T05:05:35;26.35;;;13.98;;
13493;SDS011;6819;50.886;4.332;2023-05-10T05:08:01;21.88;;;13.27;;
13493;SDS011;6819;50.886;4.332;2023-05-10T05:10:28;25.65;;;13.85;;
13493;SDS011;6819;50.886;4.332;2023-05-10T05:12:54;26.80;;;13.88;;
13493;SDS011;6819;50.886;4.332;2023-05-10T05:15:20;30.80;;;14.30;;
13493;SDS011;6819;50.886;4.332;2023-05-10T05:17:46;24.33;;;13.45;;
13493;SDS011;6819;50.886;4.332;2023-05-10T05:20:12;26.13;;;13.93;;
13493;SDS011;6819;50.886;4.332;2023-05-10T05:22:38;27.55;;;13.25;;
13493;SDS011;6819;50.886;4.332;2023-05-10T05:25:05;25.27;;;13.15;;
13493;SDS011;6819;50.886;4.332;2023-05-10T05:27:32;25.90;;;13.20;;
13493;SDS011;6819;50.886;4.332;2023-05-10T05:29:58;25.23;;;13.55;;
13493;SDS011;6819;50.886;4.332;2023-05-10T05:32:24;31.70;;;13.05;;
13493;SDS011;6819;50.886;4.332;2023-05-10T05:34:51;25.60;;;12.88;;
13493;SDS011;6819;50.886;4.332;2023-05-10T05:37:17;29.83;;;14.70;;
13493;SDS011;6819;50.886;4.332;2023-05-10T05:39:43;25.80;;;14.18;;
13493;SDS011;6819;50.886;4.332;2023-05-10T05:42:10;25.88;;;13.27;;
13493;SDS011;6819;50.886;4.332;2023-05-10T05:44:36;28.58;;;13.90;;
13493;SDS011;6819;50.886;4.332;2023-05-10T05:47:02;26.45;;;13.52;;
13493;SDS011;6819;50.886;4.332;2023-05-10T05:49:29;30.75;;;14.68;;
13493;SDS011;6819;50.886;4.332;2023-05-10T05:51:58;27.83;;;12.77;;
13493;SDS011;6819;50.886;4.332;2023-05-10T05:54:25;23.92;;;11.30;;
13493;SDS011;6819;50.886;4.332;2023-05-10T05:56:53;27.50;;;12.00;;
13493;SDS011;6819;50.886;4.332;2023-05-10T05:59:19;24.38;;;11.48;;
13493;SDS011;6819;50.886;4.332;2023-05-10T06:01:45;23.38;;;11.55;;
13493;SDS011;6819;50.886;4.332;2023-05-10T06:04:11;25.88;;;11.23;;
13493;SDS011;6819;50.886;4.332;2023-05-10T06:06:37;22.77;;;11.35;;
13493;SDS011;6819;50.886;4.332;2023-05-10T06:09:03;25.17;;;12.43;;
13493;SDS011;6819;50.886;4.332;2023-05-10T06:11:30;24.10;;;12.55;;
13493;SDS011;6819;50.886;4.332;2023-05-10T06:13:57;24.42;;;11.65;;
13493;SDS011;6819;50.886;4.332;2023-05-10T06:16:23;27.52;;;12.30;;
13493;SDS011;6819;50.886;4.332;2023-05-10T06:18:49;25.33;;;11.57;;
13493;SDS011;6819;50.886;4.332;2023-05-10T06:21:16;21.80;;;10.88;;
13493;SDS011;6819;50.886;4.332;2023-05-10T06:23:42;24.17;;;11.85;;
13493;SDS011;6819;50.886;4.332;2023-05-10T06:26:08;24.65;;;13.05;;
13493;SDS011;6819;50.886;4.332;2023-05-10T06:28:35;25.30;;;12.90;;
13493;SDS011;6819;50.886;4.332;2023-05-10T06:31:03;31.42;;;13.23;;
13493;SDS011;6819;50.886;4.332;2023-05-10T06:33:29;30.33;;;13.40;;
13493;SDS011;6819;50.886;4.332;2023-05-10T06:35:56;27.45;;;12.73;;
13493;SDS011;6819;50.886;4.332;2023-05-10T06:38:22;32.45;;;13.93;;
13493;SDS011;6819;50.886;4.332;2023-05-10T06:40:48;25.10;;;12.77;;
13493;SDS011;6819;50.886;4.332;2023-05-10T06:43:14;27.75;;;14.30;;
13493;SDS011;6819;50.886;4.332;2023-05-10T06:45:40;26.15;;;13.07;;
13493;SDS011;6819;50.886;4.332;2023-05-10T06:48:07;32.08;;;13.90;;
13493;SDS011;6819;50.886;4.332;2023-05-10T06:50:33;35.00;;;14.05;;
13493;SDS011;6819;50.886;4.332;2023-05-10T06:52:59;33.72;;;14.35;;
13493;SDS011;6819;50.886;4.332;2023-05-10T06:55:26;36.70;;;14.10;;
13493;SDS011;6819;50.886;4.332;2023-05-10T06:57:53;31.75;;;13.85;;
13493;SDS011;6819;50.886;4.332;2023-05-10T07:00:19;28.35;;;13.48;;
13493;SDS011;6819;50.886;4.332;2023-05-10T07:02:45;33.75;;;14.73;;
13493;SDS011;6819;50.886;4.332;2023-05-10T07:05:12;32.97;;;14.85;;
13493;SDS011;6819;50.886;4.332;2023-05-10T07:07:38;38.83;;;14.38;;
13493;SDS011;6819;50.886;4.332;2023-05-10T07:10:04;33.72;;;13.90;;
13493;SDS011;6819;50.886;4.332;2023-05-10T07:12:30;31.13;;;13.73;;
13493;SDS011;6819;50.886;4.332;2023-05-10T07:14:57;28.52;;;12.77;;
13493;SDS011;6819;50.886;4.332;2023-05-10T07:17:23;32.55;;;12.85;;
13493;SDS011;6819;50.886;4.332;2023-05-10T07:19:49;44.03;;;12.55;;
13493;SDS011;6819;50.886;4.332;2023-05-10T07:22:15;29.00;;;11.70;;
13493;SDS011;6819;50.886;4.332;2023-05-10T07:24:44;25.25;;;12.13;;
13493;SDS011;6819;50.886;4.332;2023-05-10T07:27:10;27.80;;;10.75;;
13493;SDS011;6819;50.886;4.332;2023-05-10T07:29:37;24.23;;;11.55;;
13493;SDS011;6819;50.886;4.332;2023-05-10T07:32:03;24.55;;;11.45;;
13493;SDS011;6819;50.886;4.332;2023-05-10T07:34:30;30.15;;;12.07;;
13493;SDS011;6819;50.886;4.332;2023-05-10T07:37:00;27.20;;;12.05;;
13493;SDS011;6819;50.886;4.332;2023-05-10T07:39:26;25.95;;;11.18;;
13493;SDS011;6819;50.886;4.332;2023-05-10T07:41:53;25.60;;;11.82;;
13493;SDS011;6819;50.886;4.332;2023-05-10T07:44:19;26.75;;;10.38;;
13493;SDS011;6819;50.886;4.332;2023-05-10T07:46:45;23.80;;;11.20;;
13493;SDS011;6819;50.886;4.332;2023-05-10T07:49:12;19.58;;;9.50;;
13493;SDS011;6819;50.886;4.332;2023-05-10T07:51:38;22.65;;;9.32;;
13493;SDS011;6819;50.886;4.332;2023-05-10T07:54:04;20.52;;;8.35;;
13493;SDS011;6819;50.886;4.332;2023-05-10T07:56:31;20.33;;;8.35;;
13493;SDS011;6819;50.886;4.332;2023-05-10T07:59:01;16.13;;;8.18;;
13493;SDS011;6819;50.886;4.332;2023-05-10T08:01:29;24.77;;;8.75;;
13493;SDS011;6819;50.886;4.332;2023-05-10T08:03:56;21.58;;;8.82;;
13493;SDS011;6819;50.886;4.332;2023-05-10T08:06:22;20.05;;;8.07;;
13493;SDS011;6819;50.886;4.332;2023-05-10T08:08:48;21.27;;;9.15;;
13493;SDS011;6819;50.886;4.332;2023-05-10T08:11:18;23.50;;;8.88;;
13493;SDS011;6819;50.886;4.332;2023-05-10T08:13:45;23.38;;;8.48;;
13493;SDS011;6819;50.886;4.332;2023-05-10T08:16:11;17.27;;;8.20;;
13493;SDS011;6819;50.886;4.332;2023-05-10T08:18:38;16.98;;;7.78;;
13493;SDS011;6819;50.886;4.332;2023-05-10T08:21:04;14.98;;;7.55;;
13493;SDS011;6819;50.886;4.332;2023-05-10T08:23:30;16.70;;;7.88;;
13493;SDS011;6819;50.886;4.332;2023-05-10T08:25:57;17.65;;;8.18;;
13493;SDS011;6819;50.886;4.332;2023-05-10T08:28:23;16.23;;;7.22;;
13493;SDS011;6819;50.886;4.332;2023-05-10T08:30:52;14.15;;;7.38;;
13493;SDS011;6819;50.886;4.332;2023-05-10T08:33:18;19.60;;;6.45;;
13493;SDS011;6819;50.886;4.332;2023-05-10T08:35:44;15.70;;;6.75;;
13493;SDS011;6819;50.886;4.332;2023-05-10T08:38:10;19.65;;;6.60;;
13493;SDS011;6819;50.886;4.332;2023-05-10T08:40:37;12.63;;;6.75;;
13493;SDS011;6819;50.886;4.332;2023-05-10T08:43:05;15.35;;;6.53;;
13493;SDS011;6819;50.886;4.332;2023-05-10T08:45:32;15.32;;;6.57;;
13493;SDS011;6819;50.886;4.332;2023-05-10T08:48:01;15.55;;;6.30;;
13493;SDS011;6819;50.886;4.332;2023-05-10T08:50:27;12.15;;;6.22;;
13493;SDS011;6819;50.886;4.332;2023-05-10T08:52:54;18.60;;;6.07;;
13493;SDS011;6819;50.886;4.332;2023-05-10T08:55:21;12.55;;;7.20;;
13493;SDS011;6819;50.886;4.332;2023-05-10T08:57:48;11.90;;;6.10;;
13493;SDS011;6819;50.886;4.332;2023-05-10T09:00:15;11.73;;;6.50;;
13493;SDS011;6819;50.886;4.332;2023-05-10T09:02:42;12.35;;;6.28;;
13493;SDS011;6819;50.886;4.332;2023-05-10T09:05:10;11.05;;;6.35;;
13493;SDS011;6819;50.886;4.332;2023-05-10T09:07:36;14.85;;;6.30;;
13493;SDS011;6819;50.886;4.332;2023-05-10T09:10:03;11.38;;;6.18;;
13493;SDS011;6819;50.886;4.332;2023-05-10T09:12:29;12.85;;;5.72;;
13493;SDS011;6819;50.886;4.332;2023-05-10T09:14:55;13.15;;;6.72;;
13493;SDS011;6819;50.886;4.332;2023-05-10T09:17:23;13.85;;;6.60;;
13493;SDS011;6819;50.886;4.332;2023-05-10T09:19:49;15.02;;;6.80;;
13493;SDS011;6819;50.886;4.332;2023-05-10T09:22:16;14.13;;;6.13;;
13493;SDS011;6819;50.886;4.332;2023-05-10T09:24:42;13.23;;;6.20;;
13493;SDS011;6819;50.886;4.332;2023-05-10T09:27:10;11.10;;;6.53;;
13493;SDS011;6819;50.886;4.332;2023-05-10T09:29:39;12.02;;;6.90;;
13493;SDS011;6819;50.886;4.332;2023-05-10T09:32:05;14.40;;;7.50;;
13493;SDS011;6819;50.886;4.332;2023-05-10T09:34:32;13.60;;;6.38;;
13493;SDS011;6819;50.886;4.332;2023-05-10T09:37:01;10.70;;;5.97;;
13493;SDS011;6819;50.886;4.332;2023-05-10T09:39:34;12.48;;;6.28;;
13493;SDS011;6819;50.886;4.332;2023-05-10T09:42:09;12.57;;;6.53;;
13493;SDS011;6819;50.886;4.332;2023-05-10T09:44:36;13.40;;;6.88;;
13493;SDS011;6819;50.886;4.332;2023-05-10T09:47:03;10.57;;;6.60;;
13493;SDS011;6819;50.886;4.332;2023-05-10T09:49:29;11.55;;;6.15;;
13493;SDS011;6819;50.886;4.332;2023-05-10T09:52:03;16.17;;;6.15;;
13493;SDS011;6819;50.886;4.332;2023-05-10T09:54:29;12.18;;;6.00;;
13493;SDS011;6819;50.886;4.332;2023-05-10T09:56:55;11.80;;;6.28;;
13493;SDS011;6819;50.886;4.332;2023-05-10T09:59:21;13.77;;;6.32;;
13493;SDS011;6819;50.886;4.332;2023-05-10T10:01:50;12.13;;;6.15;;
13493;SDS011;6819;50.886;4.332;2023-05-10T10:04:16;11.40;;;6.45;;
13493;SDS011;6819;50.886;4.332;2023-05-10T10:06:42;11.75;;;6.63;;
13493;SDS011;6819;50.886;4.332;2023-05-10T10:09:08;14.48;;;6.78;;
13493;SDS011;6819;50.886;4.332;2023-05-10T10:11:35;13.27;;;6.30;;
13493;SDS011;6819;50.886;4.332;2023-05-10T10:14:01;13.27;;;6.88;;
13493;SDS011;6819;50.886;4.332;2023-05-10T10:16:31;10.68;;;6.35;;
13493;SDS011;6819;50.886;4.332;2023-05-10T10:18:57;13.65;;;6.35;;
13493;SDS011;6819;50.886;4.332;2023-05-10T10:21:23;11.13;;;6.55;;
13493;SDS011;6819;50.886;4.332;2023-05-10T10:23:50;12.52;;;6.13;;
13493;SDS011;6819;50.886;4.332;2023-05-10T10:26:18;10.20;;;5.97;;
13493;SDS011;6819;50.886;4.332;2023-05-10T10:31:16;11.93;;;6.18;;
13493;SDS011;6819;50.886;4.332;2023-05-10T10:33:51;12.43;;;6.35;;
13493;SDS011;6819;50.886;4.332;2023-05-10T10:36:21;10.57;;;5.95;;
13493;SDS011;6819;50.886;4.332;2023-05-10T10:41:36;13.95;;;6.40;;
13493;SDS011;6819;50.886;4.332;2023-05-10T10:57:25;8.73;;;5.28;;
13493;SDS011;6819;50.886;4.332;2023-05-10T10:59:58;10.27;;;6.35;;
13493;SDS011;6819;50.886;4.332;2023-05-10T11:07:52;9.35;;;5.20;;
13493;SDS011;6819;50.886;4.332;2023-05-10T11:10:19;10.88;;;5.35;;
13493;SDS011;6819;50.886;4.332;2023-05-10T11:13:01;10.27;;;5.63;;
13493;SDS011;6819;50.886;4.332;2023-05-10T11:17:56;9.13;;;5.53;;
13493;SDS011;6819;50.886;4.332;2023-05-10T11:20:22;9.48;;;5.70;;
13493;SDS011;6819;50.886;4.332;2023-05-10T11:22:52;7.90;;;5.72;;
13493;SDS011;6819;50.886;4.332;2023-05-10T11:25:18;7.47;;;4.82;;
13493;SDS011;6819;50.886;4.332;2023-05-10T11:27:45;9.20;;;5.25;;
13493;SDS011;6819;50.886;4.332;2023-05-10T11:30:11;7.35;;;4.35;;
13493;SDS011;6819;50.886;4.332;2023-05-10T11:32:38;11.02;;;5.65;;
13493;SDS011;6819;50.886;4.332;2023-05-10T11:35:08;9.05;;;4.93;;
13493;SDS011;6819;50.886;4.332;2023-05-10T11:37:34;9.27;;;5.32;;
13493;SDS011;6819;50.886;4.332;2023-05-10T11:40:00;11.80;;;5.88;;
13493;SDS011;6819;50.886;4.332;2023-05-10T11:42:27;8.18;;;5.38;;
13493;SDS011;6819;50.886;4.332;2023-05-10T11:44:54;10.05;;;5.88;;
13493;SDS011;6819;50.886;4.332;2023-05-10T11:47:20;8.80;;;6.00;;
13493;SDS011;6819;50.886;4.332;2023-05-10T11:49:48;10.60;;;6.05;;
13493;SDS011;6819;50.886;4.332;2023-05-10T11:52:15;10.43;;;6.45;;
13493;SDS011;6819;50.886;4.332;2023-05-10T11:54:50;15.48;;;6.63;;
13493;SDS011;6819;50.886;4.332;2023-05-10T11:57:20;10.35;;;6.18;;
13493;SDS011;6819;50.886;4.332;2023-05-10T11:59:46;11.20;;;6.55;;
13493;SDS011;6819;50.886;4.332;2023-05-10T12:02:15;11.43;;;6.68;;
13493;SDS011;6819;50.886;4.332;2023-05-10T12:04:41;12.63;;;6.20;;
13493;SDS011;6819;50.886;4.332;2023-05-10T12:07:07;10.65;;;6.75;;
13493;SDS011;6819;50.886;4.332;2023-05-10T12:09:33;11.30;;;6.90;;
13493;SDS011;6819;50.886;4.332;2023-05-10T12:11:59;11.30;;;6.13;;
13493;SDS011;6819;50.886;4.332;2023-05-10T12:14:26;12.65;;;6.43;;
13493;SDS011;6819;50.886;4.332;2023-05-10T12:16:53;13.05;;;6.90;;
13493;SDS011;6819;50.886;4.332;2023-05-10T12:19:19;11.27;;;7.05;;
13493;SDS011;6819;50.886;4.332;2023-05-10T12:21:46;11.48;;;6.40;;
13493;SDS011;6819;50.886;4.332;2023-05-10T12:24:12;11.45;;;6.85;;
13493;SDS011;6819;50.886;4.332;2023-05-10T12:26:41;9.73;;;5.40;;
13493;SDS011;6819;50.886;4.332;2023-05-10T12:29:17;11.50;;;5.97;;
13493;SDS011;6819;50.886;4.332;2023-05-10T12:31:53;9.63;;;5.75;;
13493;SDS011;6819;50.886;4.332;2023-05-10T12:34:26;10.95;;;6.35;;
13493;SDS011;6819;50.886;4.332;2023-05-10T12:36:53;9.88;;;5.47;;
13493;SDS011;6819;50.886;4.332;2023-05-10T12:39:19;8.88;;;5.75;;
13493;SDS011;6819;50.886;4.332;2023-05-10T12:41:45;9.95;;;6.32;;
13493;SDS011;6819;50.886;4.332;2023-05-10T12:44:11;8.90;;;5.72;;
13493;SDS011;6819;50.886;4.332;2023-05-10T12:46:37;11.70;;;6.10;;
13493;SDS011;6819;50.886;4.332;2023-05-10T12:49:04;11.90;;;6.45;;
13493;SDS011;6819;50.886;4.332;2023-05-10T12:51:30;10.65;;;6.22;;
13493;SDS011;6819;50.886;4.332;2023-05-10T12:53:56;12.43;;;6.05;;
13493;SDS011;6819;50.886;4.332;2023-05-10T12:56:22;9.35;;;5.50;;
13493;SDS011;6819;50.886;4.332;2023-05-10T12:58:48;8.25;;;5.70;;
13493;SDS011;6819;50.886;4.332;2023-05-10T13:01:15;9.88;;;5.57;;
13493;SDS011;6819;50.886;4.332;2023-05-10T13:03:41;7.57;;;5.10;;
13493;SDS011;6819;50.886;4.332;2023-05-10T13:06:08;9.77;;;5.65;;
13493;SDS011;6819;50.886;4.332;2023-05-10T13:08:34;8.90;;;5.53;;
13493;SDS011;6819;50.886;4.332;2023-05-10T13:11:02;9.40;;;6.25;;
13493;SDS011;6819;50.886;4.332;2023-05-10T13:13:28;8.00;;;5.65;;
13493;SDS011;6819;50.886;4.332;2023-05-10T13:15:54;9.20;;;6.18;;
13493;SDS011;6819;50.886;4.332;2023-05-10T13:18:20;8.52;;;5.93;;
13493;SDS011;6819;50.886;4.332;2023-05-10T13:20:46;9.68;;;5.32;;
13493;SDS011;6819;50.886;4.332;2023-05-10T13:23:14;9.38;;;5.55;;
13493;SDS011;6819;50.886;4.332;2023-05-10T13:25:40;9.57;;;5.95;;
13493;SDS011;6819;50.886;4.332;2023-05-10T13:28:06;10.15;;;6.25;;
13493;SDS011;6819;50.886;4.332;2023-05-10T13:30:32;7.57;;;5.30;;
13493;SDS011;6819;50.886;4.332;2023-05-10T13:32:58;9.00;;;6.25;;
13493;SDS011;6819;50.886;4.332;2023-05-10T13:35:24;9.15;;;5.57;;
13493;SDS011;6819;50.886;4.332;2023-05-10T13:37:50;12.43;;;6.30;;
13493;SDS011;6819;50.886;4.332;2023-05-10T13:40:18;11.45;;;5.78;;
13493;SDS011;6819;50.886;4.332;2023-05-10T13:42:44;9.68;;;6.07;;
13493;SDS011;6819;50.886;4.332;2023-05-10T13:45:11;9.93;;;6.03;;
13493;SDS011;6819;50.886;4.332;2023-05-10T13:47:37;9.65;;;6.60;;
13493;SDS011;6819;50.886;4.332;2023-05-10T13:50:03;11.95;;;7.03;;
13493;SDS011;6819;50.886;4.332;2023-05-10T13:52:29;9.20;;;6.13;;
13493;SDS011;6819;50.886;4.332;2023-05-10T13:54:55;11.32;;;7.10;;
13493;SDS011;6819;50.886;4.332;2023-05-10T13:57:22;14.70;;;7.80;;
13493;SDS011;6819;50.886;4.332;2023-05-10T13:59:49;9.50;;;6.63;;
13493;SDS011;6819;50.886;4.332;2023-05-10T14:02:15;11.70;;;6.90;;
13493;SDS011;6819;50.886;4.332;2023-05-10T14:04:41;11.95;;;6.72;;
13493;SDS011;6819;50.886;4.332;2023-05-10T14:07:07;11.20;;;6.53;;
13493;SDS011;6819;50.886;4.332;2023-05-10T14:09:33;14.60;;;8.25;;
13493;SDS011;6819;50.886;4.332;2023-05-10T14:11:59;15.18;;;7.10;;
13493;SDS011;6819;50.886;4.332;2023-05-10T14:14:25;13.95;;;7.65;;
13493;SDS011;6819;50.886;4.332;2023-05-10T14:16:51;13.70;;;8.27;;
13493;SDS011;6819;50.886;4.332;2023-05-10T14:19:17;18.55;;;8.10;;
13493;SDS011;6819;50.886;4.332;2023-05-10T14:21:44;11.07;;;7.38;;
13493;SDS011;6819;50.886;4.332;2023-05-10T14:24:10;14.10;;;8.15;;
13493;SDS011;6819;50.886;4.332;2023-05-10T14:26:36;14.10;;;7.47;;
13493;SDS011;6819;50.886;4.332;2023-05-10T14:29:02;14.27;;;8.80;;
13493;SDS011;6819;50.886;4.332;2023-05-10T14:31:28;13.40;;;7.65;;
13493;SDS011;6819;50.886;4.332;2023-05-10T14:33:55;11.60;;;7.88;;
13493;SDS011;6819;50.886;4.332;2023-05-10T14:36:22;13.57;;;7.63;;
13493;SDS011;6819;50.886;4.332;2023-05-10T14:38:48;16.20;;;8.05;;
13493;SDS011;6819;50.886;4.332;2023-05-10T14:41:15;12.60;;;7.50;;
13493;SDS011;6819;50.886;4.332;2023-05-10T14:43:42;11.52;;;7.32;;
13493;SDS011;6819;50.886;4.332;2023-05-10T14:46:08;13.25;;;7.38;;
13493;SDS011;6819;50.886;4.332;2023-05-10T14:48:34;14.00;;;8.52;;
13493;SDS011;6819;50.886;4.332;2023-05-10T14:51:01;13.60;;;8.05;;
13493;SDS011;6819;50.886;4.332;2023-05-10T14:53:27;15.73;;;8.23;;
13493;SDS011;6819;50.886;4.332;2023-05-10T14:55:53;16.60;;;7.53;;
13493;SDS011;6819;50.886;4.332;2023-05-10T14:58:19;11.93;;;7.25;;
13493;SDS011;6819;50.886;4.332;2023-05-10T15:00:45;12.20;;;6.68;;
13493;SDS011;6819;50.886;4.332;2023-05-10T15:03:11;11.65;;;7.05;;
13493;SDS011;6819;50.886;4.332;2023-05-10T15:05:37;9.68;;;5.90;;
13493;SDS011;6819;50.886;4.332;2023-05-10T15:08:04;15.20;;;4.93;;
13493;SDS011;6819;50.886;4.332;2023-05-10T15:10:30;7.50;;;3.08;;
13493;SDS011;6819;50.886;4.332;2023-05-10T15:12:57;7.80;;;2.58;;
13493;SDS011;6819;50.886;4.332;2023-05-10T15:15:23;4.45;;;2.47;;
13493;SDS011;6819;50.886;4.332;2023-05-10T15:17:49;5.43;;;2.75;;
13493;SDS011;6819;50.886;4.332;2023-05-10T15:20:15;4.80;;;2.05;;
13493;SDS011;6819;50.886;4.332;2023-05-10T15:22:42;4.65;;;2.17;;
13493;SDS011;6819;50.886;4.332;2023-05-10T15:25:08;6.40;;;2.67;;
13493;SDS011;6819;50.886;4.332;2023-05-10T15:27:34;5.63;;;2.30;;
13493;SDS011;6819;50.886;4.332;2023-05-10T15:30:00;9.57;;;2.83;;
13493;SDS011;6819;50.886;4.332;2023-05-10T15:32:27;6.88;;;3.20;;
13493;SDS011;6819;50.886;4.332;2023-05-10T15:34:54;10.65;;;4.28;;